Time;durP1;ratioP1;P1;durP2;ratioP2;P2;SDS_P1;SDS_P2;PMS_P1;PMS_P2;Temp;Humidity;BMP_temperature;BMP_pressure;BME280_temperature;BME280_humidity;BME280_pressure;Samples;Min_cycle;Max_cycle;Signal;HPM_P1;HPM_P2
2023/10/27 00:01:56;;;;;;;;;;;;;;;8.44;88.01;99273.25;106258;1255;61165;-78
2023/10/27 00:04:23;;;;;;;;;;;;;;;8.43;88.06;99274.13;106464;1260;124969;-77
2023/10/27 00:06:49;;;;;;;;;;;;;;;8.42;88.01;99274.27;106494;1258;64678;-78
2023/10/27 00:09:16;;;;;;;;;;;;;;;8.39;88.00;99276.50;106408;1256;124638;-77
2023/10/27 00:11:43;;;;;;;;;;;;;;;8.39;88.03;99274.39;106473;1260;61321;-78
2023/10/27 00:14:09;;;;;;;;;;;;;;;8.37;88.05;99271.74;106526;1258;61193;-77
2023/10/27 00:16:36;;;;;;;;;;;;;;;8.39;88.19;99273.16;106506;1255;124439;-76
2023/10/27 00:19:02;;;;;;;;;;;;;;;8.43;88.38;99272.71;106614;1259;66302;-76
2023/10/27 00:21:29;;;;;;;;;;;;;;;8.43;88.18;99275.17;106497;1256;125112;-76
2023/10/27 00:23:55;;;;;;;;;;;;;;;8.41;88.03;99278.25;105974;1258;59822;-76
2023/10/27 00:26:22;;;;;;;;;;;;;;;8.41;88.20;99275.97;105968;1256;61353;-76
2023/10/27 00:28:50;;;;;;;;;;;;;;;8.41;88.13;99274.59;105735;1256;124626;-77
2023/10/27 00:31:16;;;;;;;;;;;;;;;8.40;88.08;99274.40;105968;1256;65027;-76
2023/10/27 00:33:43;;;;;;;;;;;;;;;8.39;88.17;99269.15;105664;1256;124985;-77
2023/10/27 00:36:10;;;;;;;;;;;;;;;8.44;88.39;99268.70;105845;1256;61318;-77
2023/10/27 00:38:36;;;;;;;;;;;;;;;8.46;88.33;99267.14;105787;1256;124814;-76
2023/10/27 00:41:03;;;;;;;;;;;;;;;8.45;88.22;99262.42;105843;1256;74260;-76
2023/10/27 00:43:29;;;;;;;;;;;;;;;8.43;88.26;99258.73;105920;1259;66116;-77
2023/10/27 00:45:56;;;;;;;;;;;;;;;8.39;88.23;99254.48;105653;1256;124894;-77
2023/10/27 00:48:22;;;;;;;;;;;;;;;8.40;88.49;99253.25;105939;1260;61386;-77
2023/10/27 00:50:49;;;;;;;;;;;;;;;8.40;88.33;99254.30;105746;1256;126185;-77
2023/10/27 00:53:17;;;;;;;;;;;;;;;8.42;88.48;99253.30;105739;1256;73900;-77
2023/10/27 00:55:44;;;;;;;;;;;;;;;8.43;88.56;99252.79;105949;1261;66329;-77
2023/10/27 00:58:10;;;;;;;;;;;;;;;8.40;88.31;99252.21;106042;1256;124508;-76
2023/10/27 01:00:37;;;;;;;;;;;;;;;8.37;88.38;99254.80;105757;1260;61321;-77
2023/10/27 01:03:04;;;;;;;;;;;;;;;8.34;88.43;99253.38;105666;1256;124773;-76
2023/10/27 01:05:31;;;;;;;;;;;;;;;8.32;88.54;99254.92;105840;1256;74738;-77
2023/10/27 01:07:58;;;;;;;;;;;;;;;8.34;88.61;99255.12;105802;1255;66403;-84
2023/10/27 01:10:24;;;;;;;;;;;;;;;8.36;88.69;99252.17;106391;1255;124590;-84
2023/10/27 01:12:51;;;;;;;;;;;;;;;8.36;88.65;99252.52;106518;1261;61166;-82
2023/10/27 01:15:18;;;;;;;;;;;;;;;8.34;88.55;99250.23;105764;1260;125416;-82
2023/10/27 01:17:44;;;;;;;;;;;;;;;8.32;88.65;99250.55;105977;1256;75051;-76
2023/10/27 01:20:11;;;;;;;;;;;;;;;8.31;88.70;99254.04;105746;1255;64999;-82
2023/10/27 01:22:41;;;;;;;;;;;;;;;8.34;88.83;99255.81;105965;1256;124661;-81
2023/10/27 01:25:08;;;;;;;;;;;;;;;8.35;88.72;99258.10;105749;1255;61466;-82
2023/10/27 01:27:34;;;;;;;;;;;;;;;8.35;88.73;99259.33;105907;1256;124695;-82
2023/10/27 01:30:01;;;;;;;;;;;;;;;8.32;88.80;99259.12;105913;1256;61248;-83
2023/10/27 01:32:28;;;;;;;;;;;;;;;8.35;88.94;99257.92;106516;1260;66291;-82
2023/10/27 01:34:54;;;;;;;;;;;;;;;8.37;88.89;99258.99;105876;1255;124939;-83
2023/10/27 01:37:21;;;;;;;;;;;;;;;8.40;88.96;99257.63;105827;1255;61347;-77
2023/10/27 01:39:48;;;;;;;;;;;;;;;8.39;88.79;99251.33;105762;1256;124414;-77
2023/10/27 01:42:15;;;;;;;;;;;;;;;8.39;88.85;99249.92;105898;1256;74767;-77
2023/10/27 01:44:41;;;;;;;;;;;;;;;8.39;88.95;99248.70;105646;1258;125067;-77
2023/10/27 01:47:08;;;;;;;;;;;;;;;8.38;88.90;99248.00;105962;1258;71647;-78
2023/10/27 01:49:34;;;;;;;;;;;;;;;8.40;88.96;99246.44;105807;1255;61316;-82
2023/10/27 01:52:01;;;;;;;;;;;;;;;8.45;88.97;99242.83;105691;1256;125110;-82
2023/10/27 01:54:27;;;;;;;;;;;;;;;8.42;88.88;99234.40;105928;1256;72723;-76
2023/10/27 01:56:54;;;;;;;;;;;;;;;8.41;88.83;99235.45;105750;1255;125282;-76
2023/10/27 01:59:20;;;;;;;;;;;;;;;8.40;88.85;99234.55;105881;1260;72771;-78
2023/10/27 02:01:47;;;;;;;;;;;;;;;8.34;88.69;99230.98;105820;1256;61281;-77
2023/10/27 02:04:13;;;;;;;;;;;;;;;8.30;88.91;99232.36;105779;1256;124521;-76
2023/10/27 02:06:40;;;;;;;;;;;;;;;8.32;89.04;99231.86;105918;1256;73478;-77
2023/10/27 02:09:07;;;;;;;;;;;;;;;8.31;89.05;99229.39;105799;1260;124793;-77
2023/10/27 02:11:33;;;;;;;;;;;;;;;8.33;89.08;99230.83;105889;1256;72696;-78
2023/10/27 02:14:00;;;;;;;;;;;;;;;8.32;89.01;99231.50;105849;1260;61217;-77
2023/10/27 02:16:26;;;;;;;;;;;;;;;8.26;88.92;99227.25;105652;1260;124848;-77
2023/10/27 02:18:53;;;;;;;;;;;;;;;8.23;88.95;99228.27;105731;1256;72858;-78
2023/10/27 02:21:19;;;;;;;;;;;;;;;8.24;89.15;99226.17;105782;1257;125196;-77
2023/10/27 02:23:46;;;;;;;;;;;;;;;8.22;89.21;99229.48;105824;1256;72680;-78
2023/10/27 02:26:13;;;;;;;;;;;;;;;8.27;89.46;99234.77;105748;1260;61244;-83
2023/10/27 02:28:40;;;;;;;;;;;;;;;8.30;89.47;99229.74;105756;1256;125100;-77
2023/10/27 02:31:07;;;;;;;;;;;;;;;8.33;89.34;99229.40;105796;1260;74645;-77
2023/10/27 02:33:33;;;;;;;;;;;;;;;8.33;89.26;99228.72;105704;1256;125120;-77
2023/10/27 02:36:00;;;;;;;;;;;;;;;8.36;89.34;99229.79;105821;1261;73268;-83
2023/10/27 02:38:26;;;;;;;;;;;;;;;8.36;89.23;99229.44;105884;1260;61237;-78
2023/10/27 02:40:53;;;;;;;;;;;;;;;8.37;89.26;99222.65;105751;1255;124488;-77
2023/10/27 02:43:19;;;;;;;;;;;;;;;8.37;88.99;99222.27;105797;1255;75325;-77
2023/10/27 02:45:46;;;;;;;;;;;;;;;8.38;89.02;99218.09;105914;1254;125201;-83
2023/10/27 02:48:13;;;;;;;;;;;;;;;8.40;89.21;99207.81;105909;1256;71448;-78
2023/10/27 02:50:39;;;;;;;;;;;;;;;8.41;89.17;99204.14;105763;1261;124754;-77
2023/10/27 02:53:06;;;;;;;;;;;;;;;8.40;89.12;99198.02;105886;1256;61323;-77
2023/10/27 02:55:34;;;;;;;;;;;;;;;8.40;89.09;99205.70;106040;1256;73044;-83
2023/10/27 02:58:01;;;;;;;;;;;;;;;8.41;89.07;99204.67;106421;1255;125485;-83
2023/10/27 03:00:27;;;;;;;;;;;;;;;8.35;88.93;99202.17;106556;1256;71351;-76
2023/10/27 03:02:54;;;;;;;;;;;;;;;8.32;89.01;99205.11;105778;1256;124719;-77
2023/10/27 03:05:21;;;;;;;;;;;;;;;8.32;89.00;99202.30;105778;1261;61315;-83
2023/10/27 03:07:47;;;;;;;;;;;;;;;8.31;89.30;99205.11;105932;1260;74618;-84
2023/10/27 03:10:14;;;;;;;;;;;;;;;8.33;89.28;99205.12;105861;1255;124878;-84
2023/10/27 03:12:41;;;;;;;;;;;;;;;8.33;89.28;99207.58;105921;1256;72651;-83
2023/10/27 03:15:09;;;;;;;;;;;;;;;8.32;89.18;99206.15;105779;1256;124618;-83
2023/10/27 03:17:35;;;;;;;;;;;;;;;8.28;89.24;99209.10;105931;1260;61347;-83
2023/10/27 03:20:04;;;;;;;;;;;;;;;8.30;89.33;99210.52;105943;1260;73819;-83
2023/10/27 03:22:31;;;;;;;;;;;;;;;8.37;89.60;99209.87;105912;1256;125630;-83
2023/10/27 03:24:57;;;;;;;;;;;;;;;8.39;89.39;99209.20;105929;1256;72750;-84
2023/10/27 03:27:24;;;;;;;;;;;;;;;8.40;89.36;99209.56;105793;1259;124380;-75
2023/10/27 03:29:51;;;;;;;;;;;;;;;8.43;89.41;99213.10;106000;1256;61322;-76
2023/10/27 03:32:18;;;;;;;;;;;;;;;8.45;89.32;99212.60;106447;1255;73679;-77
2023/10/27 03:34:45;;;;;;;;;;;;;;;8.46;89.23;99209.29;106480;1256;125174;-77
2023/10/27 03:37:12;;;;;;;;;;;;;;;8.47;89.10;99205.80;106546;1256;72697;-77
2023/10/27 03:39:40;;;;;;;;;;;;;;;8.46;89.11;99205.61;105837;1256;125083;-76
2023/10/27 03:42:09;;;;;;;;;;;;;;;8.45;89.01;99203.34;105938;1256;61366;-76
2023/10/27 03:44:36;;;;;;;;;;;;;;;8.47;89.11;99205.45;105890;1258;73813;-77
2023/10/27 03:47:04;;;;;;;;;;;;;;;8.47;89.03;99204.41;105834;1260;66461;-77
2023/10/27 03:49:30;;;;;;;;;;;;;;;8.45;88.64;99202.29;105914;1261;70977;-77
2023/10/27 03:51:59;;;;;;;;;;;;;;;8.43;88.75;99198.59;106463;1258;124555;-76
2023/10/27 03:54:25;;;;;;;;;;;;;;;8.43;88.93;99192.48;105907;1261;61227;-76
2023/10/27 03:56:52;;;;;;;;;;;;;;;8.43;88.70;99190.90;105768;1255;124590;-78
2023/10/27 03:59:19;;;;;;;;;;;;;;;8.42;88.65;99190.02;105882;1256;64785;-76
2023/10/27 04:01:46;;;;;;;;;;;;;;;8.39;88.45;99190.85;105921;1256;73176;-76
2023/10/27 04:04:12;;;;;;;;;;;;;;;8.37;88.63;99191.35;105516;1256;124435;-76
2023/10/27 04:06:40;;;;;;;;;;;;;;;8.38;88.53;99191.54;105867;1260;61276;-83
2023/10/27 04:09:06;;;;;;;;;;;;;;;8.35;88.39;99192.04;105980;1256;124798;-78
2023/10/27 04:11:33;;;;;;;;;;;;;;;8.36;88.55;99191.52;105875;1255;65175;-80
2023/10/27 04:13:59;;;;;;;;;;;;;;;8.35;88.39;99189.23;106306;1258;73736;-80
2023/10/27 04:16:26;;;;;;;;;;;;;;;8.34;88.34;99193.94;106260;1255;125291;-83
2023/10/27 04:18:52;;;;;;;;;;;;;;;8.29;88.20;99195.65;106521;1256;59339;-77
2023/10/27 04:21:19;;;;;;;;;;;;;;;8.25;88.16;99190.54;106479;1256;125398;-82
2023/10/27 04:23:47;;;;;;;;;;;;;;;8.23;88.38;99192.98;106535;1260;66541;-81
2023/10/27 04:26:13;;;;;;;;;;;;;;;8.21;88.22;99191.39;106636;1256;72695;-80
2023/10/27 04:28:40;;;;;;;;;;;;;;;8.20;88.28;99189.80;106430;1256;124475;-80
2023/10/27 04:31:06;;;;;;;;;;;;;;;8.18;88.26;99191.19;106314;1256;61287;-81
2023/10/27 04:33:37;;;;;;;;;;;;;;;8.14;88.10;99193.41;106336;1258;124407;-82
2023/10/27 04:36:06;;;;;;;;;;;;;;;8.13;88.25;99194.80;106441;1255;64619;-78
2023/10/27 04:38:33;;;;;;;;;;;;;;;8.14;88.30;99196.55;106554;1261;71411;-76
2023/10/27 04:40:59;;;;;;;;;;;;;;;8.13;88.23;99201.60;105646;1255;125605;-75
2023/10/27 04:43:26;;;;;;;;;;;;;;;8.10;88.10;99202.29;105783;1256;61886;-76
2023/10/27 04:45:52;;;;;;;;;;;;;;;8.07;88.10;99206.61;105616;1256;125463;-77
2023/10/27 04:48:19;;;;;;;;;;;;;;;8.04;88.04;99208.51;105742;1256;63814;-77
2023/10/27 04:50:51;;;;;;;;;;;;;;;8.04;88.07;99209.02;105671;1260;125478;-76
2023/10/27 04:53:18;;;;;;;;;;;;;;;8.03;88.14;99200.81;106418;1256;61367;-78
2023/10/27 04:55:44;;;;;;;;;;;;;;;8.00;88.05;99202.17;106659;1255;59331;-76
2023/10/27 04:58:11;;;;;;;;;;;;;;;7.93;88.00;99195.99;106173;1260;125105;-77
2023/10/27 05:00:38;;;;;;;;;;;;;;;7.90;88.03;99197.17;105903;1256;65539;-76
2023/10/27 05:03:05;;;;;;;;;;;;;;;7.85;88.15;99190.84;105729;1260;124574;-77
2023/10/27 05:05:31;;;;;;;;;;;;;;;7.83;88.29;99191.52;106441;1259;61250;-75
2023/10/27 05:07:58;;;;;;;;;;;;;;;7.85;88.54;99193.27;105873;1259;61109;-73
2023/10/27 05:10:24;;;;;;;;;;;;;;;7.84;88.56;99195.36;105779;1256;125081;-75
2023/10/27 05:12:51;;;;;;;;;;;;;;;7.86;88.69;99204.31;106063;1260;61223;-74
2023/10/27 05:15:17;;;;;;;;;;;;;;;7.88;88.57;99206.95;105984;1260;126936;-75
2023/10/27 05:17:44;;;;;;;;;;;;;;;7.88;88.58;99202.40;106200;1260;61144;-77
2023/10/27 05:20:11;;;;;;;;;;;;;;;7.88;88.68;99199.79;106070;1260;61258;-78
2023/10/27 05:22:37;;;;;;;;;;;;;;;7.88;88.48;99200.48;106014;1256;125181;-76
2023/10/27 05:25:06;;;;;;;;;;;;;;;7.83;88.41;99209.51;106366;1257;65119;-76
2023/10/27 05:27:37;;;;;;;;;;;;;;;7.81;88.42;99207.73;106178;1257;125255;-77
2023/10/27 05:30:04;;;;;;;;;;;;;;;7.76;88.31;99212.05;106178;1256;59674;-78
2023/10/27 05:32:32;;;;;;;;;;;;;;;7.71;88.42;99215.13;106254;1259;61287;-79
2023/10/27 05:34:59;;;;;;;;;;;;;;;7.70;88.45;99220.36;106865;1256;125130;-78
2023/10/27 05:37:26;;;;;;;;;;;;;;;7.69;88.57;99222.26;106234;1256;67307;-79
2023/10/27 05:39:53;;;;;;;;;;;;;;;7.71;88.69;99226.48;107054;1256;126269;-79
2023/10/27 05:42:19;;;;;;;;;;;;;;;7.74;88.72;99232.28;107043;1260;61445;-78
2023/10/27 05:44:46;;;;;;;;;;;;;;;7.77;88.80;99231.61;106211;1257;125609;-78
2023/10/27 05:47:13;;;;;;;;;;;;;;;7.79;88.74;99235.14;106053;1258;73396;-79
2023/10/27 05:49:39;;;;;;;;;;;;;;;7.80;88.80;99235.15;106065;1259;66276;-78
2023/10/27 05:52:06;;;;;;;;;;;;;;;7.83;88.89;99239.73;106115;1260;125264;-79
2023/10/27 05:54:32;;;;;;;;;;;;;;;7.87;88.91;99239.95;106590;1255;59452;-79
2023/10/27 05:57:00;;;;;;;;;;;;;;;7.90;88.83;99241.71;106371;1256;125284;-78
2023/10/27 05:59:27;;;;;;;;;;;;;;;7.88;88.64;99242.05;106530;1256;74661;-79
2023/10/27 06:01:54;;;;;;;;;;;;;;;7.90;88.77;99243.64;105905;1256;66277;-78
2023/10/27 06:04:21;;;;;;;;;;;;;;;7.94;88.80;99245.08;106405;1260;125692;-79
2023/10/27 06:06:47;;;;;;;;;;;;;;;7.95;88.64;99246.33;106557;1256;61309;-80
2023/10/27 06:09:14;;;;;;;;;;;;;;;7.95;88.65;99244.05;106326;1256;125688;-80
2023/10/27 06:11:41;;;;;;;;;;;;;;;7.97;88.61;99250.19;106447;1260;73580;-79
2023/10/27 06:14:08;;;;;;;;;;;;;;;7.98;88.55;99252.65;106420;1260;65538;-80
2023/10/27 06:16:35;;;;;;;;;;;;;;;7.98;88.56;99252.63;105826;1260;125565;-79
2023/10/27 06:19:03;;;;;;;;;;;;;;;8.03;88.69;99258.98;106024;1258;61847;-78
2023/10/27 06:21:30;;;;;;;;;;;;;;;8.13;88.87;99269.23;105843;1261;124421;-79
2023/10/27 06:23:56;;;;;;;;;;;;;;;8.20;88.89;99272.62;105883;1256;74697;-78
2023/10/27 06:26:23;;;;;;;;;;;;;;;8.26;88.77;99271.80;106456;1256;65146;-79
2023/10/27 06:28:50;;;;;;;;;;;;;;;8.30;88.63;99273.26;106385;1261;125699;-79
2023/10/27 06:31:16;;;;;;;;;;;;;;;8.36;88.54;99277.52;106456;1255;60716;-79
2023/10/27 06:33:43;;;;;;;;;;;;;;;8.41;88.49;99278.44;106438;1261;124896;-79
2023/10/27 06:36:09;;;;;;;;;;;;;;;8.42;88.20;99281.61;106384;1260;74643;-78
2023/10/27 06:38:36;;;;;;;;;;;;;;;8.42;87.89;99287.90;105833;1256;125862;-78
2023/10/27 06:41:03;;;;;;;;;;;;;;;8.42;87.84;99291.23;106530;1256;72558;-79
2023/10/27 06:43:30;;;;;;;;;;;;;;;8.45;87.95;99296.69;105941;1260;61238;-79
2023/10/27 06:45:56;;;;;;;;;;;;;;;8.49;87.99;99297.61;105830;1259;125130;-78
2023/10/27 06:48:23;;;;;;;;;;;;;;;8.54;87.92;99296.24;106408;1262;75672;-78
2023/10/27 06:50:50;;;;;;;;;;;;;;;8.61;88.03;99302.44;105926;1256;124557;-79
2023/10/27 06:53:16;;;;;;;;;;;;;;;8.64;87.86;99308.05;106501;1256;73458;-79
2023/10/27 06:55:43;;;;;;;;;;;;;;;8.69;87.82;99308.27;106444;1256;61178;-79
2023/10/27 06:58:10;;;;;;;;;;;;;;;8.72;87.74;99307.10;106452;1258;124704;-79
2023/10/27 07:00:36;;;;;;;;;;;;;;;8.77;87.57;99307.84;106395;1256;73819;-79
2023/10/27 07:03:03;;;;;;;;;;;;;;;8.80;87.44;99307.68;106403;1260;125242;-78
2023/10/27 07:05:30;;;;;;;;;;;;;;;8.82;87.30;99311.36;105990;1257;72721;-78
2023/10/27 07:07:57;;;;;;;;;;;;;;;8.83;87.21;99310.34;106449;1263;61290;-79
2023/10/27 07:10:23;;;;;;;;;;;;;;;8.86;87.19;99313.52;106429;1256;124894;-85
2023/10/27 07:12:50;;;;;;;;;;;;;;;8.92;87.30;99314.10;106644;1261;74607;-82
2023/10/27 07:15:17;;;;;;;;;;;;;;;9.01;87.32;99315.73;106307;1256;124571;-78
2023/10/27 07:17:43;;;;;;;;;;;;;;;9.04;86.99;99318.56;106070;1260;70379;-80
2023/10/27 07:20:11;;;;;;;;;;;;;;;9.11;87.04;99318.62;105974;1261;61273;-79
2023/10/27 07:22:38;;;;;;;;;;;;;;;9.17;86.88;99317.08;106449;1255;124630;-80
2023/10/27 07:25:05;;;;;;;;;;;;;;;9.17;86.51;99316.91;106404;1271;73443;-79
2023/10/27 07:27:31;;;;;;;;;;;;;;;9.19;86.39;99311.34;106301;1256;124523;-79
2023/10/27 07:29:58;;;;;;;;;;;;;;;9.20;86.27;99305.22;106391;1258;71832;-79
2023/10/27 07:32:25;;;;;;;;;;;;;;;9.21;86.09;99302.95;106390;1257;61242;-79
2023/10/27 07:34:51;;;;;;;;;;;;;;;9.22;86.04;99299.96;106337;1260;124452;-79
2023/10/27 07:37:20;;;;;;;;;;;;;;;9.21;85.74;99296.81;106395;1256;74540;-79
2023/10/27 07:39:46;;;;;;;;;;;;;;;9.18;85.54;99295.56;106475;1258;124421;-80
2023/10/27 07:42:13;;;;;;;;;;;;;;;9.14;85.65;99297.12;106488;1258;72854;-78
2023/10/27 07:44:40;;;;;;;;;;;;;;;9.17;85.69;99296.62;105815;1256;124712;-79
2023/10/27 07:47:07;;;;;;;;;;;;;;;9.18;85.56;99295.91;106480;1257;59279;-79
2023/10/27 07:49:33;;;;;;;;;;;;;;;9.19;85.49;99292.78;106521;1260;74497;-79
2023/10/27 07:52:03;;;;;;;;;;;;;;;9.25;85.70;99290.36;106443;1262;125133;-79
2023/10/27 07:54:29;;;;;;;;;;;;;;;9.35;85.82;99286.95;106494;1258;70795;-80
2023/10/27 07:56:56;;;;;;;;;;;;;;;9.46;85.90;99287.54;106438;1256;125319;-79
2023/10/27 07:59:23;;;;;;;;;;;;;;;9.50;85.38;99285.96;106551;1258;61304;-79
2023/10/27 08:01:51;;;;;;;;;;;;;;;9.47;85.13;99284.20;106403;1257;74819;-79
2023/10/27 08:04:19;;;;;;;;;;;;;;;9.52;85.29;99285.45;106356;1260;124854;-79
2023/10/27 08:06:45;;;;;;;;;;;;;;;9.63;85.41;99290.24;106379;1257;71412;-80
2023/10/27 08:09:12;;;;;;;;;;;;;;;9.74;85.44;99287.67;106340;1258;124977;-79
2023/10/27 08:11:38;;;;;;;;;;;;;;;9.84;85.40;99284.03;106544;1258;61155;-79
2023/10/27 08:14:05;;;;;;;;;;;;;;;9.92;85.27;99282.15;106507;1256;73304;-79
2023/10/27 08:16:32;;;;;;;;;;;;;;;10.02;85.09;99282.36;106402;1257;124411;-79
2023/10/27 08:18:58;;;;;;;;;;;;;;;10.05;84.60;99286.23;106574;1258;71409;-79
2023/10/27 08:21:26;;;;;;;;;;;;;;;10.12;84.79;99284.32;106203;1261;124334;-79
2023/10/27 08:23:52;;;;;;;;;;;;;;;10.24;84.82;99275.24;105838;1256;61355;-78
2023/10/27 08:26:19;;;;;;;;;;;;;;;10.41;84.73;99276.73;106008;1256;74875;-79
2023/10/27 08:28:46;;;;;;;;;;;;;;;10.45;84.11;99276.20;106418;1260;124632;-79
2023/10/27 08:31:16;;;;;;;;;;;;;;;10.44;83.79;99279.02;106359;1258;71373;-80
2023/10/27 08:33:43;;;;;;;;;;;;;;;10.44;83.60;99283.39;106369;1260;124032;-79
2023/10/27 08:36:11;;;;;;;;;;;;;;;10.46;83.52;99285.84;106531;1258;61286;-80
2023/10/27 08:38:37;;;;;;;;;;;;;;;10.49;83.38;99290.77;106419;1257;124171;-79
2023/10/27 08:41:07;;;;;;;;;;;;;;;10.50;83.26;99288.31;106472;1261;65113;-80
2023/10/27 08:43:37;;;;;;;;;;;;;;;10.52;83.11;99287.27;106543;1258;72775;-80
2023/10/27 08:46:05;;;;;;;;;;;;;;;10.55;83.24;99286.92;106281;1260;124649;-80
2023/10/27 08:48:31;;;;;;;;;;;;;;;10.52;82.93;99290.77;106329;1261;61771;-80
2023/10/27 08:51:03;;;;;;;;;;;;;;;10.46;82.75;99296.20;106118;1261;124781;-80
2023/10/27 08:53:30;;;;;;;;;;;;;;;10.36;82.46;99297.92;106356;1260;64666;-78
2023/10/27 08:55:58;;;;;;;;;;;;;;;10.27;82.54;99295.25;106043;1258;72776;-79
2023/10/27 08:58:24;;;;;;;;;;;;;;;10.19;82.40;99291.52;106316;1256;125450;-79
2023/10/27 09:00:51;;;;;;;;;;;;;;;10.20;82.83;99288.73;106641;1254;61260;-79
2023/10/27 09:03:18;;;;;;;;;;;;;;;10.30;83.08;99284.58;106420;1258;125664;-79
2023/10/27 09:05:45;;;;;;;;;;;;;;;10.34;82.91;99287.58;106424;1260;64781;-79
2023/10/27 09:08:11;;;;;;;;;;;;;;;10.35;82.94;99285.30;106398;1258;72476;-78
2023/10/27 09:10:38;;;;;;;;;;;;;;;10.38;82.82;99287.41;105954;1255;125784;-79
2023/10/27 09:13:05;;;;;;;;;;;;;;;10.38;82.78;99291.61;106042;1257;61357;-79
2023/10/27 09:15:42;;;;;;;;;;;;;;;10.40;82.85;99289.70;106505;1259;124617;-79
2023/10/27 09:18:09;;;;;;;;;;;;;;;10.38;82.76;99290.21;106555;1257;66656;-79
2023/10/27 09:20:45;;;;;;;;;;;;;;;10.32;82.36;99293.52;106244;1257;179298;-80
2023/10/27 09:23:11;;;;;;;;;;;;;;;10.20;82.04;99294.16;106542;1260;61349;-79
2023/10/27 09:25:38;;;;;;;;;;;;;;;10.04;81.92;99289.90;106539;1259;61126;-80
2023/10/27 09:28:08;;;;;;;;;;;;;;;9.95;82.09;99291.61;106489;1257;124081;-79
2023/10/27 09:30:37;;;;;;;;;;;;;;;9.82;82.29;99283.86;106451;1257;66255;-79
2023/10/27 09:33:15;;;;;;;;;;;;;;;9.77;82.63;99284.01;106189;1256;124573;-80
2023/10/27 09:35:42;;;;;;;;;;;;;;;9.65;82.61;99296.04;106652;1256;61345;-79
2023/10/27 09:38:09;;;;;;;;;;;;;;;9.56;82.48;99299.66;106217;1257;59545;-80
2023/10/27 09:40:39;;;;;;;;;;;;;;;9.40;82.34;99295.89;106264;1258;124631;-80
2023/10/27 09:43:14;;;;;;;;;;;;;;;9.29;82.50;99291.80;106467;1261;66362;-80
2023/10/27 09:45:43;;;;;;;;;;;;;;;9.35;83.03;99294.29;106264;1257;124807;-79
2023/10/27 09:48:09;;;;;;;;;;;;;;;9.41;83.16;99297.98;106322;1260;61225;-80
2023/10/27 09:50:36;;;;;;;;;;;;;;;9.50;83.37;99303.31;106429;1258;61263;-80
2023/10/27 09:53:03;;;;;;;;;;;;;;;9.65;83.47;99304.10;106396;1260;124401;-80
2023/10/27 09:55:30;;;;;;;;;;;;;;;9.77;83.41;99303.46;106297;1256;64724;-79
2023/10/27 09:57:59;;;;;;;;;;;;;;;9.83;83.14;99298.23;106304;1260;124561;-79
2023/10/27 10:00:27;;;;;;;;;;;;;;;9.90;83.05;99294.05;106426;1260;61357;-79
2023/10/27 10:02:55;;;;;;;;;;;;;;;10.03;83.10;99289.20;105624;1262;124742;-79
2023/10/27 10:05:23;;;;;;;;;;;;;;;10.23;83.26;99286.98;105733;1266;74355;-80
2023/10/27 10:07:52;;;;;;;;;;;;;;;10.40;82.92;99285.66;106377;1257;64420;-80
2023/10/27 10:10:29;;;;;;;;;;;;;;;10.41;82.32;99286.02;106393;1269;124785;-80
2023/10/27 10:13:02;;;;;;;;;;;;;;;10.43;82.28;99281.10;106362;1257;59504;-79
2023/10/27 10:15:39;;;;;;;;;;;;;;;10.56;82.39;99273.41;106611;1257;125854;-83
2023/10/27 10:18:08;;;;;;;;;;;;;;;10.64;82.21;99275.17;106546;1258;74789;-81
2023/10/27 10:20:59;;;;;;;;;;;;;;;10.71;81.75;99273.60;106664;1257;65122;-83
2023/10/27 10:23:38;;;;;;;;;;;;;;;10.64;81.17;99265.88;106525;1258;72713;-81
2023/10/27 10:26:05;;;;;;;;;;;;;;;10.53;80.87;99261.65;106527;1257;61159;-80
2023/10/27 10:28:34;;;;;;;;;;;;;;;10.47;81.09;99260.43;106319;1258;124090;-80
2023/10/27 10:31:07;;;;;;;;;;;;;;;10.50;81.13;99258.31;106575;1257;74349;-80
2023/10/27 10:33:37;;;;;;;;;;;;;;;10.45;80.77;99254.10;106452;1257;124063;-84
2023/10/27 10:36:22;;;;;;;;;;;;;;;10.40;80.79;99254.96;106593;1259;72696;-84
2023/10/27 10:38:55;;;;;;;;;;;;;;;10.36;80.93;99260.92;106368;1256;124601;-84
2023/10/27 10:41:28;;;;;;;;;;;;;;;10.36;81.02;99268.47;106490;1258;61299;-80
2023/10/27 10:44:21;;;;;;;;;;;;;;;10.35;81.02;99269.17;106457;1257;74675;-81
2023/10/27 10:46:49;;;;;;;;;;;;;;;10.35;80.90;99276.89;106435;1261;124760;-80
2023/10/27 10:49:26;;;;;;;;;;;;;;;10.33;80.72;99278.11;106505;1260;71834;-80
2023/10/27 10:51:53;;;;;;;;;;;;;;;10.30;80.84;99278.24;106417;1256;124838;-80
2023/10/27 10:54:25;;;;;;;;;;;;;;;10.27;80.79;99276.83;106555;1258;61229;-80
2023/10/27 10:56:59;;;;;;;;;;;;;;;10.33;81.11;99277.23;106434;1257;124719;-80
2023/10/27 10:59:25;;;;;;;;;;;;;;;10.36;80.98;99275.31;105868;1258;66051;-80
2023/10/27 11:01:56;;;;;;;;;;;;;;;10.32;80.87;99269.52;106408;1254;72144;-79
2023/10/27 11:04:29;;;;;;;;;;;;;;;10.30;80.83;99270.91;106257;1257;124774;-79
2023/10/27 11:07:00;;;;;;;;;;;;;;;10.23;80.71;99271.03;106605;1255;59425;-79
2023/10/27 11:09:27;;;;;;;;;;;;;;;10.10;80.79;99273.45;105924;1256;125308;-79
2023/10/27 11:11:54;;;;;;;;;;;;;;;10.05;81.16;99273.42;106594;1260;66269;-80
2023/10/27 11:14:21;;;;;;;;;;;;;;;9.97;81.18;99271.48;106466;1256;72447;-80
2023/10/27 11:16:55;;;;;;;;;;;;;;;9.91;81.28;99267.42;106265;1255;125387;-80
2023/10/27 11:19:22;;;;;;;;;;;;;;;9.85;81.38;99267.75;106585;1254;61257;-80
2023/10/27 11:21:54;;;;;;;;;;;;;;;9.80;81.45;99265.98;106458;1257;124371;-80
2023/10/27 11:24:22;;;;;;;;;;;;;;;9.78;81.52;99265.09;106558;1257;64792;-79
2023/10/27 11:26:49;;;;;;;;;;;;;;;9.75;81.56;99265.95;106408;1261;124737;-76
2023/10/27 11:29:15;;;;;;;;;;;;;;;9.73;81.67;99267.36;105724;1260;61376;-76
2023/10/27 11:31:42;;;;;;;;;;;;;;;9.71;81.77;99268.57;105955;1259;61973;-77
2023/10/27 11:34:09;;;;;;;;;;;;;;;9.72;81.95;99265.59;105842;1258;124404;-78
2023/10/27 11:36:40;;;;;;;;;;;;;;;9.70;81.83;99262.44;106410;1261;66170;-77
2023/10/27 11:39:10;;;;;;;;;;;;;;;9.67;81.95;99264.17;106238;1256;124721;-78
2023/10/27 11:41:36;;;;;;;;;;;;;;;9.64;81.99;99273.26;106582;1254;63730;-86
2023/10/27 11:44:03;;;;;;;;;;;;;;;9.66;82.35;99273.27;106614;1255;59634;-85
2023/10/27 11:46:29;;;;;;;;;;;;;;;9.69;82.27;99269.61;106366;1258;125539;-78
2023/10/27 11:48:56;;;;;;;;;;;;;;;9.70;82.19;99265.77;106698;1257;61262;-78
2023/10/27 11:51:23;;;;;;;;;;;;;;;9.71;82.18;99266.82;106159;1257;124772;-77
2023/10/27 11:53:49;;;;;;;;;;;;;;;9.72;82.18;99270.32;105975;1257;61367;-77
2023/10/27 11:56:16;;;;;;;;;;;;;;;9.69;82.08;99265.59;105964;1258;61225;-77
2023/10/27 11:58:42;;;;;;;;;;;;;;;9.68;82.19;99268.73;105961;1259;124853;-77
2023/10/27 12:01:09;;;;;;;;;;;;;;;9.74;82.44;99267.88;105941;1260;61311;-75
2023/10/27 12:03:35;;;;;;;;;;;;;;;9.79;82.40;99264.23;105909;1260;124473;-76
2023/10/27 12:06:02;;;;;;;;;;;;;;;9.85;82.46;99261.63;105894;1256;61483;-77
2023/10/27 12:08:29;;;;;;;;;;;;;;;9.85;82.46;99261.64;105951;1260;61257;-75
2023/10/27 12:10:56;;;;;;;;;;;;;;;9.84;82.30;99264.77;105901;1258;124631;-76
2023/10/27 12:13:23;;;;;;;;;;;;;;;9.83;82.41;99267.73;105966;1257;66269;-76
2023/10/27 12:15:50;;;;;;;;;;;;;;;9.83;82.38;99267.56;105717;1254;132351;-77
2023/10/27 12:18:16;;;;;;;;;;;;;;;9.85;82.35;99264.23;105809;1258;60577;-76
2023/10/27 12:20:43;;;;;;;;;;;;;;;9.85;82.28;99266.89;106027;1256;61274;-77
2023/10/27 12:23:10;;;;;;;;;;;;;;;9.89;82.33;99269.00;105797;1257;123683;-76
2023/10/27 12:25:37;;;;;;;;;;;;;;;9.95;82.33;99269.72;105830;1256;65894;-77
2023/10/27 12:28:04;;;;;;;;;;;;;;;10.00;82.37;99266.41;105656;1256;123662;-77
2023/10/27 12:30:31;;;;;;;;;;;;;;;10.05;82.34;99267.30;105698;1257;59671;-76
2023/10/27 12:32:57;;;;;;;;;;;;;;;10.06;82.24;99265.03;106009;1256;125074;-76
2023/10/27 12:35:27;;;;;;;;;;;;;;;10.06;82.06;99263.97;105787;1260;73632;-75
2023/10/27 12:37:54;;;;;;;;;;;;;;;10.04;82.05;99262.91;105949;1256;66259;-76
2023/10/27 12:40:20;;;;;;;;;;;;;;;10.01;82.05;99261.85;105712;1261;124574;-76
2023/10/27 12:42:47;;;;;;;;;;;;;;;9.94;82.00;99256.92;105819;1256;61363;-76